createdAt,value
2019-04-28T00:00:11.441Z,2.40
2019-04-28T00:02:40.738Z,2.10
2019-04-28T00:05:07.858Z,2.43
2019-04-28T00:07:35.185Z,2.27
2019-04-28T00:10:02.601Z,2.00
2019-04-28T00:12:31.103Z,2.10
2019-04-28T00:14:58.558Z,2.07
2019-04-28T00:17:25.902Z,2.17
2019-04-28T00:19:54.837Z,2.10
2019-04-28T00:22:26.470Z,2.40
2019-04-28T00:24:58.107Z,1.87
2019-04-28T00:27:25.428Z,2.70
2019-04-28T00:29:52.745Z,2.33
2019-04-28T00:32:21.010Z,2.63
2019-04-28T00:34:48.466Z,2.90
2019-04-28T00:37:23.334Z,2.27
2019-04-28T00:39:51.048Z,3.77
2019-04-28T00:42:18.381Z,2.20
2019-04-28T00:44:45.686Z,2.63
2019-04-28T00:47:12.967Z,3.10
2019-04-28T00:49:45.813Z,3.00
2019-04-28T00:52:13.270Z,2.60
2019-04-28T00:54:42.039Z,2.50
2019-04-28T00:57:11.197Z,2.63
2019-04-28T00:59:50.978Z,2.40
2019-04-28T01:02:10.983Z,2.60
2019-04-28T01:04:38.242Z,2.10
2019-04-28T01:07:05.747Z,2.10
2019-04-28T01:09:33.077Z,2.37
2019-04-28T01:12:01.796Z,2.50
2019-04-28T01:14:30.906Z,2.33
2019-04-28T01:17:02.788Z,2.03
2019-04-28T01:19:36.601Z,2.23
2019-04-28T01:22:05.594Z,2.27
2019-04-28T01:24:32.937Z,2.20
2019-04-28T01:27:00.523Z,2.80
2019-04-28T01:29:29.465Z,2.30
2019-04-28T01:32:10.716Z,2.43
2019-04-28T01:34:39.820Z,1.80
2019-04-28T01:37:07.041Z,1.97
2019-04-28T01:39:34.405Z,2.00
2019-04-28T01:42:01.687Z,2.00
2019-04-28T01:44:29.590Z,2.13
2019-04-28T01:46:57.277Z,2.00
2019-04-28T01:49:24.625Z,1.87
2019-04-28T01:51:53.426Z,1.83
2019-04-28T01:54:20.725Z,2.43
2019-04-28T01:56:47.994Z,3.00
2019-04-28T01:59:15.261Z,2.40
2019-04-28T02:01:42.589Z,2.70
2019-04-28T02:04:10.169Z,1.73
2019-04-28T02:06:37.455Z,2.23
2019-04-28T02:09:06.437Z,2.50
2019-04-28T02:11:33.708Z,2.80
2019-04-28T02:14:00.984Z,1.77
2019-04-28T02:16:29.659Z,2.03
2019-04-28T02:18:57.139Z,1.73
2019-04-28T02:21:35.355Z,1.87
2019-04-28T02:24:20.785Z,1.90
2019-04-28T02:26:50.350Z,2.40
2019-04-28T02:29:17.165Z,2.17
2019-04-28T02:31:44.526Z,1.77
2019-04-28T02:34:11.889Z,2.00
2019-04-28T02:36:40.763Z,2.10
2019-04-28T02:39:10.598Z,1.80
2019-04-28T02:41:37.407Z,2.40
2019-04-28T02:44:04.749Z,2.10
2019-04-28T02:46:32.051Z,1.77
2019-04-28T02:49:00.945Z,1.60
2019-04-28T02:51:30.764Z,1.83
2019-04-28T02:54:00.466Z,1.40
2019-04-28T02:56:27.311Z,1.50
2019-04-28T02:58:54.595Z,1.57
2019-04-28T03:01:26.054Z,1.50
2019-04-28T03:03:50.894Z,1.33
2019-04-28T03:06:20.540Z,1.43
2019-04-28T03:08:47.297Z,1.40
2019-04-28T03:11:14.777Z,1.13
2019-04-28T03:13:42.054Z,1.20
2019-04-28T03:16:10.792Z,1.27
2019-04-28T03:18:41.051Z,1.37
2019-04-28T03:21:07.434Z,1.20
2019-04-28T03:23:34.710Z,1.20
2019-04-28T03:26:03.642Z,1.23
2019-04-28T03:28:33.715Z,1.07
2019-04-28T03:31:35.231Z,1.30
2019-04-28T03:33:41.429Z,1.07
2019-04-28T03:36:07.828Z,0.90
2019-04-28T03:38:32.649Z,0.90
2019-04-28T03:41:01.075Z,1.17
2019-04-28T03:43:30.621Z,0.80
2019-04-28T03:46:02.807Z,0.93
2019-04-28T03:48:30.941Z,0.60
2019-04-28T03:50:57.110Z,0.70
2019-04-28T03:53:24.387Z,0.60
2019-04-28T03:55:51.852Z,0.87
2019-04-28T03:58:23.646Z,0.80
2019-04-28T04:00:50.415Z,0.83
2019-04-28T04:03:17.251Z,0.80
2019-04-28T04:05:44.602Z,1.07
2019-04-28T04:08:11.869Z,0.60
2019-04-28T04:10:43.782Z,0.60
2019-04-28T04:13:12.693Z,0.50
2019-04-28T04:15:57.930Z,0.87
2019-04-28T04:18:30.873Z,0.67
2019-04-28T04:21:00.642Z,0.83
2019-04-28T04:23:27.418Z,0.60
2019-04-28T04:25:54.691Z,0.80
2019-04-28T04:28:21.982Z,0.80
2019-04-28T04:30:50.779Z,0.80
2019-04-28T04:33:20.816Z,0.60
2019-04-28T04:35:47.401Z,1.00
2019-04-28T04:38:14.697Z,0.70
2019-04-28T04:40:41.977Z,0.70
2019-04-28T04:43:11.254Z,0.90
2019-04-28T04:45:40.522Z,0.73
2019-04-28T04:48:07.523Z,0.90
2019-04-28T04:50:34.802Z,1.07
2019-04-28T04:53:02.873Z,0.63
2019-04-28T04:55:30.930Z,0.90
2019-04-28T04:58:00.593Z,0.80
2019-04-28T05:00:30.649Z,1.00
2019-04-28T05:03:00.814Z,0.90
2019-04-28T05:05:30.332Z,1.30
2019-04-28T05:07:57.770Z,0.90
2019-04-28T05:10:25.055Z,0.80
2019-04-28T05:12:52.392Z,0.80
2019-04-28T05:15:20.371Z,0.87
2019-04-28T05:17:47.730Z,0.90
2019-04-28T05:20:15.137Z,0.83
2019-04-28T05:22:46.664Z,1.10
2019-04-28T05:25:15.762Z,1.00
2019-04-28T05:27:43.090Z,0.90
2019-04-28T05:30:13.750Z,1.27
2019-04-28T05:32:45.256Z,0.87
2019-04-28T05:35:10.250Z,1.53
2019-04-28T05:37:37.600Z,0.70
2019-04-28T05:40:05.445Z,0.90
2019-04-28T05:42:32.712Z,0.60
2019-04-28T05:45:00.128Z,0.60
2019-04-28T05:47:27.420Z,0.83
2019-04-28T05:49:56.329Z,0.80
2019-04-28T05:52:34.148Z,0.80
2019-04-28T05:55:15.097Z,0.90
2019-04-28T05:57:44.113Z,1.10
2019-04-28T06:00:19.802Z,0.67
2019-04-28T06:02:56.375Z,0.93
2019-04-28T06:05:20.936Z,1.00
2019-04-28T06:07:49.847Z,0.90
2019-04-28T06:10:17.132Z,0.93
2019-04-28T06:12:44.397Z,1.00
2019-04-28T06:15:12.022Z,1.10
2019-04-28T06:17:39.793Z,0.80
2019-04-28T06:20:07.505Z,1.37
2019-04-28T06:22:34.768Z,1.13
2019-04-28T06:25:02.067Z,0.80
2019-04-28T06:27:29.404Z,0.87
2019-04-28T06:29:56.749Z,1.00
2019-04-28T06:32:24.046Z,0.93
2019-04-28T06:34:51.309Z,1.10
2019-04-28T06:37:18.578Z,0.70
2019-04-28T06:39:47.393Z,1.00
2019-04-28T06:42:14.803Z,0.90
2019-04-28T06:44:42.145Z,1.00
2019-04-28T06:47:09.456Z,1.10
2019-04-28T06:49:36.728Z,1.00
2019-04-28T06:52:04.068Z,1.10
2019-04-28T06:54:31.379Z,1.50
2019-04-28T06:56:58.713Z,0.80
2019-04-28T06:59:25.986Z,1.00
2019-04-28T07:01:53.292Z,0.90
2019-04-28T07:04:20.552Z,0.80
2019-04-28T07:06:47.823Z,0.80
2019-04-28T07:09:15.177Z,0.80
2019-04-28T07:11:42.448Z,0.90
2019-04-28T07:14:09.716Z,0.77
2019-04-28T07:16:37.080Z,0.83
2019-04-28T07:19:04.349Z,0.90
2019-04-28T07:21:33.257Z,0.90
2019-04-28T07:24:00.641Z,1.00
2019-04-28T07:26:27.905Z,1.47
2019-04-28T07:28:55.170Z,1.07
2019-04-28T07:31:24.033Z,0.90
2019-04-28T07:33:51.295Z,1.10
2019-04-28T07:36:18.560Z,0.90
2019-04-28T07:38:45.864Z,1.17
2019-04-28T07:41:13.128Z,1.00
2019-04-28T07:43:40.396Z,1.10
2019-04-28T07:46:07.681Z,0.83
2019-04-28T07:48:35.013Z,1.10
2019-04-28T07:51:02.289Z,1.20
2019-04-28T07:53:49.210Z,0.93
2019-04-28T07:56:16.472Z,0.97
2019-04-28T07:58:43.737Z,0.77
2019-04-28T08:01:12.392Z,0.97
2019-04-28T08:03:49.323Z,1.00
2019-04-28T08:06:08.677Z,0.90
2019-04-28T08:08:35.980Z,0.80
2019-04-28T08:11:03.241Z,0.97
2019-04-28T08:13:30.585Z,0.90
2019-04-28T08:15:57.889Z,0.70
2019-04-28T08:18:25.152Z,0.80
2019-04-28T08:20:52.427Z,0.80
2019-04-28T08:23:19.800Z,0.80
2019-04-28T08:25:47.140Z,0.80
2019-04-28T08:28:14.409Z,0.80
2019-04-28T08:30:41.696Z,0.90
2019-04-28T08:33:19.380Z,0.70
2019-04-28T08:35:46.744Z,1.00
2019-04-28T08:38:14.008Z,0.80
2019-04-28T08:40:41.351Z,0.70
2019-04-28T08:43:08.731Z,0.60
2019-04-28T08:45:35.985Z,0.80
2019-04-28T08:48:03.345Z,0.70
2019-04-28T08:50:30.632Z,0.60
2019-04-28T08:52:57.896Z,0.80
2019-04-28T08:55:25.160Z,1.00
2019-04-28T08:57:52.444Z,0.70
2019-04-28T09:00:21.279Z,0.60
2019-04-28T09:02:48.543Z,0.90
2019-04-28T09:05:15.919Z,0.70
2019-04-28T09:07:43.248Z,1.00
2019-04-28T09:10:10.576Z,1.00
2019-04-28T09:12:37.904Z,0.77
2019-04-28T09:15:06.465Z,0.70
2019-04-28T09:17:33.721Z,0.87
2019-04-28T09:20:01.082Z,0.80
2019-04-28T09:22:28.345Z,0.90
2019-04-28T09:24:55.608Z,0.70
2019-04-28T09:27:22.968Z,0.83
2019-04-28T09:29:50.307Z,1.30
2019-04-28T09:32:17.640Z,1.00
2019-04-28T09:34:44.929Z,0.90
2019-04-28T09:37:12.193Z,0.70
2019-04-28T09:39:44.160Z,0.80
2019-04-28T09:42:31.036Z,0.90
2019-04-28T09:45:01.253Z,2.00
2019-04-28T09:47:28.328Z,2.10
2019-04-28T09:49:55.667Z,2.30
2019-04-28T09:52:23.028Z,0.90
2019-04-28T09:54:50.291Z,1.10
2019-04-28T09:57:17.586Z,0.50
2019-04-28T09:59:44.848Z,1.17
2019-04-28T10:02:12.199Z,0.80
2019-04-28T10:04:41.570Z,1.10
2019-04-28T10:07:08.505Z,1.10
2019-04-28T10:09:35.768Z,0.80
2019-04-28T10:12:03.125Z,0.77
2019-04-28T10:14:30.388Z,0.90
2019-04-28T10:16:57.725Z,0.70
2019-04-28T10:19:25.020Z,0.80
2019-04-28T10:21:52.293Z,0.90
2019-04-28T10:24:19.560Z,0.70
2019-04-28T10:26:46.849Z,0.60
2019-04-28T10:29:14.120Z,0.60
2019-04-28T10:31:41.393Z,1.10
2019-04-28T10:34:08.684Z,0.70
2019-04-28T10:36:35.948Z,0.70
2019-04-28T10:39:24.557Z,0.67
2019-04-28T10:41:51.817Z,0.83
2019-04-28T10:44:19.155Z,0.70
2019-04-28T10:46:46.641Z,0.73
2019-04-28T10:49:13.978Z,0.70
2019-04-28T10:51:41.245Z,0.63
2019-04-28T10:54:08.545Z,0.63
2019-04-28T10:56:35.808Z,1.00
2019-04-28T10:59:03.251Z,0.70
2019-04-28T11:01:30.644Z,0.60
2019-04-28T11:03:59.548Z,0.90
2019-04-28T11:06:26.882Z,0.70
2019-04-28T11:08:58.728Z,0.80
2019-04-28T11:11:26.560Z,0.70
2019-04-28T11:13:53.836Z,0.80
2019-04-28T11:16:22.912Z,0.70
2019-04-28T11:18:50.192Z,0.70
2019-04-28T11:21:17.597Z,0.60
2019-04-28T11:23:44.957Z,0.70
2019-04-28T11:26:12.216Z,0.67
2019-04-28T11:28:39.484Z,0.57
2019-04-28T11:31:06.875Z,0.70
2019-04-28T11:33:51.904Z,0.77
2019-04-28T11:36:21.005Z,0.73
2019-04-28T11:38:48.275Z,0.70
2019-04-28T11:41:15.617Z,0.80
2019-04-28T11:43:42.919Z,0.70
2019-04-28T11:46:11.827Z,0.83
2019-04-28T11:48:39.189Z,0.50
2019-04-28T11:51:06.537Z,0.70
2019-04-28T11:53:33.817Z,0.80
2019-04-28T11:56:01.154Z,0.70
2019-04-28T11:58:28.481Z,0.70
2019-04-28T12:00:55.752Z,0.60
2019-04-28T12:03:23.027Z,0.80
2019-04-28T12:05:50.538Z,0.60
2019-04-28T12:08:17.812Z,0.60
2019-04-28T12:10:49.580Z,0.80
2019-04-28T12:13:33.994Z,0.77
2019-04-28T12:16:19.554Z,0.60
2019-04-28T12:18:57.521Z,0.80
2019-04-28T12:21:25.004Z,0.67
2019-04-28T12:23:52.346Z,0.70
2019-04-28T12:26:19.633Z,0.73
2019-04-28T12:28:46.907Z,0.70
2019-04-28T12:31:14.173Z,0.70
2019-04-28T12:33:41.509Z,0.60
2019-04-28T12:36:08.953Z,0.60
2019-04-28T12:38:36.237Z,0.70
2019-04-28T12:41:03.720Z,0.70
2019-04-28T12:43:31.056Z,0.80
2019-04-28T12:45:58.371Z,0.83
2019-04-28T12:48:25.688Z,0.63
2019-04-28T12:50:53.637Z,0.70
2019-04-28T12:53:21.749Z,0.50
2019-04-28T12:55:49.175Z,0.90
2019-04-28T12:58:16.510Z,0.70
2019-04-28T13:00:45.494Z,0.70
2019-04-28T13:03:30.574Z,0.60
2019-04-28T13:06:03.658Z,0.73
2019-04-28T13:08:28.497Z,0.50
2019-04-28T13:10:55.878Z,0.63
2019-04-28T13:13:23.256Z,0.83
2019-04-28T13:15:50.592Z,0.80
2019-04-28T13:18:17.979Z,0.70
2019-04-28T13:20:45.245Z,0.83
2019-04-28T13:23:12.522Z,1.03
2019-04-28T13:25:40.313Z,0.80
2019-04-28T13:28:07.688Z,0.60
2019-04-28T13:30:34.968Z,0.77
2019-04-28T13:33:02.278Z,0.70
2019-04-28T13:35:29.586Z,0.60
2019-04-28T13:37:56.922Z,0.63
2019-04-28T13:40:25.881Z,0.80
2019-04-28T13:42:53.149Z,1.57
2019-04-28T13:45:22.069Z,0.60
2019-04-28T13:47:49.365Z,0.90
2019-04-28T13:50:21.652Z,0.73
2019-04-28T13:52:48.991Z,0.70
2019-04-28T13:55:26.825Z,0.87
2019-04-28T13:57:54.533Z,0.83
2019-04-28T14:00:40.050Z,0.70
2019-04-28T14:03:09.023Z,0.77
2019-04-28T14:05:43.784Z,0.57
2019-04-28T14:08:11.182Z,1.20
2019-04-28T14:10:38.471Z,0.70
2019-04-28T14:13:05.858Z,0.80
2019-04-28T14:15:33.128Z,0.70
2019-04-28T14:18:00.414Z,0.67
2019-04-28T14:20:27.808Z,0.60
2019-04-28T14:22:55.117Z,1.17
2019-04-28T14:25:22.384Z,0.60
2019-04-28T14:27:49.771Z,1.03
2019-04-28T14:30:17.199Z,0.83
2019-04-28T14:32:44.472Z,0.60
2019-04-28T14:35:11.845Z,1.00
2019-04-28T14:37:39.160Z,1.07
2019-04-28T14:40:06.762Z,1.00
2019-04-28T14:42:34.140Z,1.10
2019-04-28T14:45:01.420Z,1.00
2019-04-28T14:47:28.771Z,0.90
2019-04-28T14:49:56.156Z,1.10
2019-04-28T14:52:23.499Z,0.60
2019-04-28T14:54:53.717Z,1.00
2019-04-28T14:57:21.137Z,1.37
2019-04-28T14:59:48.405Z,1.00
2019-04-28T15:02:32.573Z,1.07
2019-04-28T15:05:03.962Z,0.90
2019-04-28T15:07:47.904Z,1.00
2019-04-28T15:10:35.517Z,1.43
2019-04-28T15:13:03.521Z,0.80
2019-04-28T15:15:30.848Z,0.80
2019-04-28T15:17:58.187Z,0.80
2019-04-28T15:20:25.565Z,0.90
2019-04-28T15:22:52.837Z,1.10
2019-04-28T15:25:20.096Z,0.80
2019-04-28T15:27:47.393Z,1.00
2019-04-28T15:30:14.797Z,0.87
2019-04-28T15:32:42.062Z,1.00
2019-04-28T15:35:09.353Z,1.20
2019-04-28T15:37:36.616Z,1.00
2019-04-28T15:40:05.568Z,1.03
2019-04-28T15:42:32.861Z,1.00
2019-04-28T15:45:00.129Z,0.93
2019-04-28T15:47:27.401Z,1.10
2019-04-28T15:49:54.776Z,0.80
2019-04-28T15:52:22.049Z,1.00
2019-04-28T15:54:49.312Z,1.00
2019-04-28T15:57:16.609Z,1.30
2019-04-28T15:59:43.881Z,0.93
2019-04-28T16:02:11.145Z,0.80
2019-04-28T16:04:38.465Z,1.07
2019-04-28T16:07:05.729Z,1.20
2019-04-28T16:09:33.028Z,1.10
2019-04-28T16:12:00.316Z,0.97
2019-04-28T16:14:27.589Z,1.43
2019-04-28T16:16:54.924Z,1.20
2019-04-28T16:19:22.238Z,1.40
2019-04-28T16:21:49.568Z,1.57
2019-04-28T16:24:17.273Z,1.10
2019-04-28T16:26:44.564Z,1.27
2019-04-28T16:29:11.829Z,1.20
2019-04-28T16:31:39.101Z,1.33
2019-04-28T16:34:06.409Z,0.90
2019-04-28T16:36:33.728Z,1.37
2019-04-28T16:39:01.682Z,1.30
2019-04-28T16:41:36.163Z,1.30
2019-04-28T16:44:03.985Z,1.50
2019-04-28T16:46:31.260Z,1.00
2019-04-28T16:48:58.623Z,1.20
2019-04-28T16:51:25.945Z,1.30
2019-04-28T16:53:53.213Z,1.30
2019-04-28T16:56:34.150Z,1.20
2019-04-28T16:59:03.059Z,1.53
2019-04-28T17:01:48.552Z,1.20
2019-04-28T17:04:15.954Z,1.83
2019-04-28T17:06:43.228Z,1.40
2019-04-28T17:09:11.493Z,1.50
2019-04-28T17:11:38.769Z,1.60
2019-04-28T17:14:06.049Z,1.93
2019-04-28T17:16:34.167Z,1.53
2019-04-28T17:19:01.444Z,1.40
2019-04-28T17:21:28.781Z,1.30
2019-04-28T17:23:56.073Z,1.57
2019-04-28T17:26:23.340Z,1.77
2019-04-28T17:28:50.604Z,1.50
2019-04-28T17:31:17.960Z,1.40
2019-04-28T17:33:45.233Z,1.90
2019-04-28T17:36:12.541Z,1.77
2019-04-28T17:38:39.869Z,1.77
2019-04-28T17:41:07.351Z,1.40
2019-04-28T17:43:34.632Z,1.73
2019-04-28T17:46:01.944Z,1.33
2019-04-28T17:48:30.924Z,1.87
2019-04-28T17:50:58.329Z,1.50
2019-04-28T17:53:25.628Z,2.07
2019-04-28T17:55:52.889Z,1.50
2019-04-28T17:58:20.433Z,1.60
2019-04-28T18:00:55.096Z,1.53
2019-04-28T18:03:40.640Z,1.87
2019-04-28T18:06:18.530Z,1.47
2019-04-28T18:08:45.876Z,1.87
2019-04-28T18:11:13.208Z,1.63
2019-04-28T18:13:40.501Z,1.50
2019-04-28T18:16:21.449Z,1.80
2019-04-28T18:18:51.871Z,2.20
2019-04-28T18:21:19.136Z,1.60
2019-04-28T18:23:46.406Z,2.00
2019-04-28T18:26:13.728Z,1.53
2019-04-28T18:28:41.020Z,2.10
2019-04-28T18:31:26.408Z,1.33
2019-04-28T18:34:01.071Z,1.40
2019-04-28T18:36:32.081Z,2.30
2019-04-28T18:39:00.850Z,1.50
2019-04-28T18:41:45.876Z,1.30
2019-04-28T18:44:14.776Z,1.50
2019-04-28T18:46:42.041Z,1.37
2019-04-28T18:49:09.415Z,1.50
2019-04-28T18:51:36.672Z,1.30
2019-04-28T18:54:04.013Z,1.73
2019-04-28T18:56:31.373Z,1.60
2019-04-28T18:58:58.641Z,1.60
2019-04-28T19:01:27.555Z,1.33
2019-04-28T19:03:54.933Z,1.40
2019-04-28T19:06:22.277Z,1.97
2019-04-28T19:08:51.184Z,1.63
2019-04-28T19:11:20.132Z,1.20
2019-04-28T19:13:54.929Z,2.43
2019-04-28T19:16:26.357Z,1.87
2019-04-28T19:18:56.375Z,1.13
2019-04-28T19:21:23.655Z,2.10
2019-04-28T19:23:53.950Z,1.60
2019-04-28T19:26:20.045Z,1.60
2019-04-28T19:28:47.309Z,1.60
2019-04-28T19:31:14.632Z,1.13
2019-04-28T19:33:41.907Z,1.60
2019-04-28T19:36:09.194Z,1.53
2019-04-28T19:38:36.486Z,1.67
2019-04-28T19:41:03.860Z,1.40
2019-04-28T19:43:31.188Z,1.47
2019-04-28T19:46:00.138Z,1.27
2019-04-28T19:48:27.421Z,1.30
2019-04-28T19:50:54.753Z,1.63
2019-04-28T19:53:22.052Z,1.63
2019-04-28T19:56:03.168Z,1.50
2019-04-28T19:58:32.133Z,1.50
2019-04-28T20:01:01.041Z,1.50
2019-04-28T20:03:28.300Z,1.77
2019-04-28T20:05:55.600Z,1.83
2019-04-28T20:08:22.874Z,1.63
2019-04-28T20:10:50.160Z,1.50
2019-04-28T20:13:17.541Z,1.53
2019-04-28T20:15:45.918Z,1.33
2019-04-28T20:18:13.254Z,1.43
2019-04-28T20:20:40.652Z,1.60
2019-04-28T20:23:07.937Z,1.67
2019-04-28T20:25:35.200Z,1.77
2019-04-28T20:28:02.572Z,1.90
2019-04-28T20:30:29.872Z,1.30
2019-04-28T20:33:06.884Z,1.67
2019-04-28T20:35:27.865Z,1.50
2019-04-28T20:37:59.464Z,1.33
2019-04-28T20:40:28.369Z,1.40
2019-04-28T20:43:02.070Z,1.60
2019-04-28T20:45:29.624Z,1.57
2019-04-28T20:47:56.888Z,1.50
2019-04-28T20:50:24.189Z,1.40
2019-04-28T20:52:51.479Z,1.80
2019-04-28T20:55:19.904Z,2.00
2019-04-28T20:57:47.224Z,1.33
2019-04-28T21:00:14.668Z,1.37
2019-04-28T21:02:42.111Z,1.37
2019-04-28T21:05:09.397Z,1.70
2019-04-28T21:07:36.689Z,1.60
2019-04-28T21:10:04.929Z,1.40
2019-04-28T21:12:32.237Z,1.40
2019-04-28T21:14:59.549Z,1.80
2019-04-28T21:17:26.851Z,1.60
2019-04-28T21:19:54.210Z,1.80
2019-04-28T21:22:21.474Z,1.50
2019-04-28T21:24:48.737Z,1.53
2019-04-28T21:27:16.029Z,2.30
2019-04-28T21:29:43.371Z,1.53
2019-04-28T21:32:10.625Z,1.57
2019-04-28T21:34:37.922Z,1.47
2019-04-28T21:37:05.255Z,1.50
2019-04-28T21:39:32.518Z,1.47
2019-04-28T21:42:00.685Z,1.80
2019-04-28T21:44:44.929Z,1.37
2019-04-28T21:47:23.102Z,1.70
2019-04-28T21:49:50.353Z,1.93
2019-04-28T21:52:17.625Z,1.60
2019-04-28T21:54:44.929Z,1.57
2019-04-28T21:57:12.196Z,1.70
2019-04-28T21:59:39.467Z,1.70
2019-04-28T22:02:06.832Z,1.40
2019-04-28T22:04:34.110Z,1.70
2019-04-28T22:07:01.373Z,2.30
2019-04-28T22:09:28.741Z,1.67
2019-04-28T22:11:56.004Z,1.77
2019-04-28T22:14:23.269Z,1.60
2019-04-28T22:16:50.660Z,1.57
2019-04-28T22:19:17.999Z,1.30
2019-04-28T22:21:45.264Z,2.00
2019-04-28T22:24:14.266Z,1.50
2019-04-28T22:26:43.328Z,1.87
2019-04-28T22:29:10.740Z,1.63
2019-04-28T22:31:38.027Z,1.80
2019-04-28T22:34:05.308Z,1.50
2019-04-28T22:36:32.644Z,1.57
2019-04-28T22:39:00.008Z,1.57
2019-04-28T22:41:27.344Z,1.93
2019-04-28T22:43:54.609Z,1.90
2019-04-28T22:46:21.912Z,2.13
2019-04-28T22:48:49.177Z,1.53
2019-04-28T22:51:16.440Z,2.07
2019-04-28T22:53:43.817Z,1.53
2019-04-28T22:56:25.018Z,2.03
2019-04-28T22:58:56.556Z,1.60
2019-04-28T23:01:25.460Z,1.70
2019-04-28T23:03:54.380Z,1.40
2019-04-28T23:06:21.741Z,2.10
2019-04-28T23:08:49.072Z,2.10
2019-04-28T23:11:16.404Z,1.53
2019-04-28T23:13:44.061Z,1.53
2019-04-28T23:16:11.325Z,1.63
2019-04-28T23:18:38.593Z,1.57
2019-04-28T23:21:13.537Z,1.40
2019-04-28T23:23:40.956Z,1.70
2019-04-28T23:26:08.223Z,1.70
2019-04-28T23:28:35.577Z,1.80
2019-04-28T23:31:02.909Z,1.90
2019-04-28T23:33:30.164Z,1.37
2019-04-28T23:35:57.462Z,1.73
2019-04-28T23:38:24.720Z,1.60
2019-04-28T23:40:53.641Z,1.97
2019-04-28T23:43:21.792Z,1.80
2019-04-28T23:45:49.076Z,2.03
2019-04-28T23:48:16.489Z,1.77
2019-04-28T23:50:57.114Z,2.00
2019-04-28T23:53:42.409Z,2.00
2019-04-28T23:56:09.751Z,1.90
2019-04-28T23:58:37.133Z,2.07
